Time;durP1;ratioP1;P1;durP2;ratioP2;P2;SDS_P1;SDS_P2;PMS_P1;PMS_P2;Temp;Humidity;BMP_temperature;BMP_pressure;BME280_temperature;BME280_humidity;BME280_pressure;Samples;Min_cycle;Max_cycle;Signal;HPM_P1;HPM_P2
2022/01/08 00:00:27;;;;;;;;;0.33;0.33;;;;;-149.69;100.00;58464.25;6212361;22;47125;-90
2022/01/08 00:02:53;;;;;;;;;1.00;1.00;;;;;-149.69;100.00;58464.25;6239983;22;45351;-91
2022/01/08 00:05:19;;;;;;;;;0.00;0.00;;;;;-149.69;100.00;58464.25;6212753;22;45367;-91
2022/01/08 00:07:45;;;;;;;;;1.00;1.00;;;;;-149.69;100.00;58464.25;6212125;22;45355;-91
2022/01/08 00:10:10;;;;;;;;;0.00;0.00;;;;;-149.69;100.00;58464.25;6212473;22;48316;-90
2022/01/08 00:12:36;;;;;;;;;2.00;1.00;;;;;-149.69;100.00;58464.25;6238032;22;45759;-91
2022/01/08 00:15:02;;;;;;;;;0.00;0.00;;;;;-149.69;100.00;58464.25;6240132;22;45274;-90
2022/01/08 00:17:28;;;;;;;;;0.00;0.00;;;;;-149.69;100.00;58464.25;6212547;22;45366;-90
2022/01/08 00:19:53;;;;;;;;;2.00;2.00;;;;;-149.69;100.00;58464.25;6240572;22;45291;-91
2022/01/08 00:22:18;;;;;;;;;0.00;0.00;;;;;-149.69;100.00;58464.25;6237565;22;48873;-90
2022/01/08 00:24:44;;;;;;;;;0.67;0.00;;;;;-149.69;100.00;58464.25;6239109;22;45239;-91
2022/01/08 00:27:09;;;;;;;;;0.00;0.00;;;;;-149.69;100.00;58464.25;6239844;22;45303;-91
2022/01/08 00:29:35;;;;;;;;;0.00;0.00;;;;;-149.69;100.00;58464.25;6239709;22;45232;-91
2022/01/08 00:32:00;;;;;;;;;0.00;0.00;;;;;-149.69;100.00;58464.25;6237974;22;46700;-91
2022/01/08 00:34:25;;;;;;;;;1.00;1.00;;;;;-149.69;100.00;58464.25;6213743;22;45589;-91
2022/01/08 00:36:51;;;;;;;;;0.33;0.33;;;;;-149.69;100.00;58464.25;6240407;22;45442;-91
2022/01/08 00:39:16;;;;;;;;;5.67;1.00;;;;;-149.69;100.00;58464.25;6240405;22;46350;-91
2022/01/08 00:41:42;;;;;;;;;1.00;1.00;;;;;-149.69;100.00;58464.25;6213449;22;45467;-91
2022/01/08 00:44:07;;;;;;;;;1.00;1.00;;;;;-149.69;100.00;58464.25;6238248;22;45349;-91
2022/01/08 00:46:34;;;;;;;;;1.00;1.00;;;;;-149.69;100.00;58464.25;6242236;22;45303;-91
2022/01/08 00:49:00;;;;;;;;;1.00;0.33;;;;;-149.69;100.00;58464.25;6241530;22;46275;-91
2022/01/08 00:51:25;;;;;;;;;2.00;1.00;;;;;-149.69;100.00;58464.25;6240532;22;45366;-90
2022/01/08 00:53:51;;;;;;;;;0.00;0.00;;;;;-149.69;100.00;58464.25;6241698;22;45307;-90
2022/01/08 00:56:16;;;;;;;;;0.00;0.00;;;;;-149.69;100.00;58464.25;6239845;22;45306;-91
2022/01/08 00:58:42;;;;;;;;;2.33;1.00;;;;;-149.69;100.00;58464.25;6239592;22;52823;-90
2022/01/08 01:01:08;;;;;;;;;2.00;2.00;;;;;-149.69;100.00;58464.25;6213862;22;45399;-91
2022/01/08 01:03:33;;;;;;;;;1.00;1.00;;;;;-149.69;100.00;58464.25;6241908;22;45224;-91
2022/01/08 01:05:59;;;;;;;;;10.00;5.00;;;;;-149.69;100.00;58464.25;6213925;22;45379;-90
2022/01/08 01:08:24;;;;;;;;;4.33;2.33;;;;;-149.69;100.00;58464.25;6241414;22;45319;-91
2022/01/08 01:10:50;;;;;;;;;2.67;2.67;;;;;-149.69;100.00;58464.25;6239224;22;45794;-90
2022/01/08 01:13:15;;;;;;;;;3.33;3.33;;;;;-149.69;100.00;58464.25;6240455;22;45291;-90
2022/01/08 01:15:40;;;;;;;;;3.33;3.33;;;;;-149.69;100.00;58464.25;6241209;22;45296;-91
2022/01/08 01:18:06;;;;;;;;;2.67;2.67;;;;;-149.69;100.00;58464.25;6240797;22;46263;-90
2022/01/08 01:20:32;;;;;;;;;3.67;3.33;;;;;-149.69;100.00;58464.25;6238971;22;45381;-91
2022/01/08 01:25:29;;;;;;;;;3.33;3.33;;;;;-149.69;100.00;58464.25;6241785;22;45293;-91
2022/01/08 01:28:09;;;;;;;;;4.33;4.33;;;;;-149.69;100.00;58464.25;6240705;22;46090;-91
2022/01/08 01:47:02;;;;;;;;;3.33;3.33;;;;;-149.69;100.00;58464.25;6177788;23;45330;-90
2022/01/08 01:49:33;;;;;;;;;2.00;2.00;;;;;-149.69;100.00;58464.25;6151687;23;48070;-91
2022/01/08 01:51:59;;;;;;;;;0.00;0.00;;;;;-149.69;100.00;58464.25;6176551;23;45307;-90
2022/01/08 01:54:26;;;;;;;;;1.67;1.33;;;;;-149.69;100.00;58464.25;6177550;23;45367;-91
2022/01/08 01:56:52;;;;;;;;;3.33;1.00;;;;;-149.69;100.00;58464.25;6151427;23;45500;-91
2022/01/08 01:59:17;;;;;;;;;2.00;2.00;;;;;-149.69;100.00;58464.25;6150654;23;47039;-90
2022/01/08 02:01:43;;;;;;;;;2.33;1.67;;;;;-149.69;100.00;58464.25;6151685;23;45666;-91
2022/01/08 02:04:08;;;;;;;;;2.00;2.00;;;;;-149.69;100.00;58464.25;6152311;23;45607;-91
2022/01/08 02:06:33;;;;;;;;;1.33;1.00;;;;;-149.69;100.00;58464.25;6151792;23;45426;-91
2022/01/08 02:08:59;;;;;;;;;1.33;1.00;;;;;-149.69;100.00;58464.25;6150868;23;51369;-91
2022/01/08 02:11:24;;;;;;;;;1.00;1.00;;;;;-149.69;100.00;58464.25;6177656;23;45403;-90
2022/01/08 02:13:49;;;;;;;;;4.67;1.67;;;;;-149.69;100.00;58464.25;6192174;22;45413;-91
2022/01/08 02:16:18;;;;;;;;;2.00;2.00;;;;;-149.69;100.00;58464.25;6238469;22;45527;-91
2022/01/08 02:18:47;;;;;;;;;1.00;1.00;;;;;-149.69;100.00;58464.25;6241277;22;45730;-91
2022/01/08 02:21:14;;;;;;;;;4.67;2.00;;;;;-149.69;100.00;58464.25;6213023;22;45398;-91
2022/01/08 02:23:41;;;;;;;;;0.33;0.33;;;;;-149.69;100.00;58464.25;6240421;22;45365;-91
2022/01/08 02:26:08;;;;;;;;;1.00;1.00;;;;;-149.69;100.00;58464.25;6213615;22;45474;-90
2022/01/08 02:28:36;;;;;;;;;3.33;2.00;;;;;-149.69;100.00;58464.25;6239163;22;46640;-91
2022/01/08 02:31:02;;;;;;;;;1.67;1.67;;;;;-149.69;100.00;58464.25;6213907;22;46051;-91
2022/01/08 02:33:29;;;;;;;;;3.33;1.00;;;;;-149.69;100.00;58464.25;6241196;22;45394;-91
2022/01/08 02:35:54;;;;;;;;;1.00;1.00;;;;;-149.69;100.00;58464.25;6240915;22;45398;-90
2022/01/08 02:38:21;;;;;;;;;1.67;0.67;;;;;-149.69;100.00;58464.25;6238552;22;46353;-91
2022/01/08 02:41:01;;;;;;;;;1.00;1.00;;;;;-149.69;100.00;58464.25;6241540;22;45283;-91
2022/01/08 02:43:28;;;;;;;;;1.00;1.00;;;;;-149.69;100.00;58464.25;6212176;22;45402;-90
2022/01/08 02:45:54;;;;;;;;;0.00;0.00;;;;;-149.69;100.00;58464.25;6239594;22;45397;-90
2022/01/08 02:48:20;;;;;;;;;0.67;0.67;;;;;-149.69;100.00;58464.25;6212923;22;48304;-90
2022/01/08 02:50:46;;;;;;;;;2.00;1.00;;;;;-149.69;100.00;58464.25;6240506;22;45359;-90
2022/01/08 02:53:11;;;;;;;;;1.00;1.00;;;;;-149.69;100.00;58464.25;6240650;22;45291;-90
2022/01/08 02:55:37;;;;;;;;;1.00;1.00;;;;;-149.69;100.00;58464.25;6213950;22;45508;-90
2022/01/08 02:58:03;;;;;;;;;1.00;1.00;;;;;-149.69;100.00;58464.25;6212843;22;47394;-90
2022/01/08 03:00:28;;;;;;;;;0.00;0.00;;;;;-149.69;100.00;58464.25;6213563;22;45748;-90
2022/01/08 03:02:54;;;;;;;;;1.00;1.00;;;;;-149.69;100.00;58464.25;6240867;22;45295;-90
2022/01/08 03:05:19;;;;;;;;;1.00;1.00;;;;;-149.69;100.00;58464.25;6241460;22;45361;-91
2022/01/08 03:07:46;;;;;;;;;1.33;1.33;;;;;-149.69;100.00;58464.25;6212627;22;47353;-91
2022/01/08 03:10:15;;;;;;;;;0.67;0.67;;;;;-149.69;100.00;58464.25;6241473;22;45389;-91
2022/01/08 03:12:42;;;;;;;;;1.00;1.00;;;;;-149.69;100.00;58464.25;6212386;22;45453;-90
2022/01/08 03:15:09;;;;;;;;;0.00;0.00;;;;;-149.69;100.00;58464.25;6213477;22;45335;-90
2022/01/08 03:17:35;;;;;;;;;0.67;0.67;;;;;-149.69;100.00;58464.25;6241004;22;46433;-90
2022/01/08 03:20:05;;;;;;;;;0.67;0.67;;;;;-149.69;100.00;58464.25;6239072;22;45636;-90
2022/01/08 03:22:31;;;;;;;;;1.00;1.00;;;;;-149.69;100.00;58464.25;6240343;22;45303;-91
2022/01/08 03:24:56;;;;;;;;;2.00;0.33;;;;;-149.69;100.00;58464.25;6241890;22;45289;-91
2022/01/08 03:27:22;;;;;;;;;0.00;0.00;;;;;-149.69;100.00;58464.25;6240331;22;48546;-90
2022/01/08 03:29:47;;;;;;;;;1.67;0.00;;;;;-149.69;100.00;58464.25;6212980;22;45913;-91
2022/01/08 03:32:13;;;;;;;;;0.67;0.67;;;;;-149.69;100.00;58464.25;6213386;22;45301;-91
2022/01/08 03:34:38;;;;;;;;;0.67;0.67;;;;;-149.69;100.00;58464.25;6213789;22;45443;-90
2022/01/08 03:37:04;;;;;;;;;1.00;0.00;;;;;-149.69;100.00;58464.25;6240111;22;46550;-91
2022/01/08 03:39:29;;;;;;;;;0.33;0.33;;;;;-149.69;100.00;58464.25;6241210;22;45374;-91
2022/01/08 03:41:54;;;;;;;;;0.67;0.67;;;;;-149.69;100.00;58464.25;6238986;22;45188;-89
2022/01/08 03:44:20;;;;;;;;;1.00;1.00;;;;;-149.69;100.00;58464.25;6239162;22;46160;-91
2022/01/08 03:46:46;;;;;;;;;1.00;1.00;;;;;-149.69;100.00;58464.25;6213240;22;48224;-90
2022/01/08 03:51:37;;;;;;;;;1.67;0.67;;;;;-149.69;100.00;58464.25;6235762;22;45366;-91
2022/01/08 03:54:03;;;;;;;;;1.00;1.00;;;;;-149.69;100.00;58464.25;6213383;22;45358;-91
2022/01/08 03:56:28;;;;;;;;;0.00;0.00;;;;;-149.69;100.00;58464.25;6241522;22;45361;-91
2022/01/08 03:58:54;;;;;;;;;0.67;0.67;;;;;-149.69;100.00;58464.25;6211869;22;45321;-91
2022/01/08 04:01:19;;;;;;;;;2.00;0.00;;;;;-149.69;100.00;58464.25;6241080;22;45290;-91
2022/01/08 04:03:45;;;;;;;;;0.00;0.00;;;;;-149.69;100.00;58464.25;6239003;22;45692;-90
2022/01/08 04:06:10;;;;;;;;;1.67;1.00;;;;;-149.69;100.00;58464.25;6240076;22;45388;-90
2022/01/08 04:08:35;;;;;;;;;1.67;0.00;;;;;-149.69;100.00;58464.25;6238449;22;47087;-91
2022/01/08 04:11:02;;;;;;;;;1.00;1.00;;;;;-149.69;100.00;58464.25;6241328;22;45205;-91
2022/01/08 04:13:31;;;;;;;;;1.00;1.00;;;;;-149.69;100.00;58464.25;6236747;22;45470;-90
2022/01/08 04:16:09;;;;;;;;;1.33;1.00;;;;;-149.69;100.00;58464.25;6238262;22;48526;-91
2022/01/08 04:18:34;;;;;;;;;1.00;1.00;;;;;-149.69;100.00;58464.25;6212758;22;45343;-91
2022/01/08 04:23:40;;;;;;;;;0.67;0.67;;;;;-149.69;100.00;58464.25;6240258;22;45337;-91
2022/01/08 04:26:06;;;;;;;;;0.00;0.00;;;;;-149.69;100.00;58464.25;6240270;22;46487;-91
2022/01/08 04:28:31;;;;;;;;;1.67;1.67;;;;;-149.69;100.00;58464.25;6210628;22;45788;-90
2022/01/08 04:30:56;;;;;;;;;1.00;1.00;;;;;-149.69;100.00;58464.25;6240199;22;45754;-91
2022/01/08 04:33:21;;;;;;;;;3.00;1.00;;;;;-149.69;100.00;58464.25;6237809;22;45330;-91
2022/01/08 04:35:47;;;;;;;;;1.00;1.00;;;;;-149.69;100.00;58464.25;6239130;22;45525;-91
2022/01/08 04:38:12;;;;;;;;;2.00;0.00;;;;;-149.69;100.00;58464.25;6240225;22;45378;-91
2022/01/08 04:40:38;;;;;;;;;0.67;0.67;;;;;-149.69;100.00;58464.25;6212456;22;45244;-90
2022/01/08 04:43:04;;;;;;;;;0.67;0.67;;;;;-149.69;100.00;58464.25;6211185;22;45421;-91
2022/01/08 04:45:30;;;;;;;;;1.00;1.00;;;;;-149.69;100.00;58464.25;6239248;22;45476;-91
2022/01/08 04:47:57;;;;;;;;;1.00;0.00;;;;;-149.69;100.00;58464.25;6238739;22;45259;-91
2022/01/08 04:50:24;;;;;;;;;2.67;1.00;;;;;-149.69;100.00;58464.25;6212713;22;45280;-91
2022/01/08 04:52:49;;;;;;;;;0.33;0.33;;;;;-149.69;100.00;58464.25;6238712;22;45642;-90
2022/01/08 04:55:15;;;;;;;;;1.67;1.00;;;;;-149.69;100.00;58464.25;6237768;22;46956;-90
2022/01/08 04:57:40;;;;;;;;;0.00;0.00;;;;;-149.69;100.00;58464.25;6239179;22;45346;-91
2022/01/08 05:00:06;;;;;;;;;2.00;1.00;;;;;-149.69;100.00;58464.25;6239549;22;45300;-91
2022/01/08 05:02:31;;;;;;;;;1.00;1.00;;;;;-149.69;100.00;58464.25;6236733;22;45473;-91
2022/01/08 05:04:57;;;;;;;;;1.00;1.00;;;;;-149.69;100.00;58464.25;6239705;22;45528;-91
2022/01/08 05:07:22;;;;;;;;;0.33;0.33;;;;;-149.69;100.00;58464.25;6236940;22;45449;-91
2022/01/08 05:09:48;;;;;;;;;0.00;0.00;;;;;-149.69;100.00;58464.25;6212992;22;45370;-92
2022/01/08 05:12:14;;;;;;;;;0.33;0.33;;;;;-149.69;100.00;58464.25;6236510;22;45358;-91
2022/01/08 05:14:40;;;;;;;;;1.00;1.00;;;;;-149.69;100.00;58464.25;6238447;22;45516;-91
2022/01/08 05:17:06;;;;;;;;;1.33;1.00;;;;;-149.69;100.00;58464.25;6239041;22;45414;-91
2022/01/08 05:22:06;;;;;;;;;0.00;0.00;;;;;-149.69;100.00;58464.25;6238968;22;45418;-91
2022/01/08 05:24:35;;;;;;;;;1.00;1.00;;;;;-149.69;100.00;58464.25;6236936;22;45985;-90
2022/01/08 05:27:03;;;;;;;;;0.00;0.00;;;;;-149.69;100.00;58464.25;6212210;22;45526;-91
2022/01/08 05:29:29;;;;;;;;;0.00;0.00;;;;;-149.69;100.00;58464.25;6212525;22;45369;-90
2022/01/08 05:31:54;;;;;;;;;1.00;1.00;;;;;-149.69;100.00;58464.25;6213316;22;45414;-91
2022/01/08 05:34:19;;;;;;;;;0.00;0.00;;;;;-149.69;100.00;58464.25;6240915;22;45403;-91
2022/01/08 05:36:45;;;;;;;;;1.00;1.00;;;;;-149.69;100.00;58464.25;6240708;22;45442;-91
2022/01/08 05:39:10;;;;;;;;;1.00;1.00;;;;;-149.69;100.00;58464.25;6241019;22;45397;-91
2022/01/08 05:41:35;;;;;;;;;1.00;1.00;;;;;-149.69;100.00;58464.25;6240974;22;45465;-90
2022/01/08 05:44:00;;;;;;;;;0.00;0.00;;;;;-149.69;100.00;58464.25;6211515;22;48023;-91
2022/01/08 05:46:26;;;;;;;;;1.00;1.00;;;;;-149.69;100.00;58464.25;6238765;22;45342;-90
2022/01/08 05:48:51;;;;;;;;;3.00;1.00;;;;;-149.69;100.00;58464.25;6240572;22;45371;-91
2022/01/08 05:51:16;;;;;;;;;0.00;0.00;;;;;-149.69;100.00;58464.25;6241125;22;45274;-90
2022/01/08 05:53:42;;;;;;;;;0.33;0.33;;;;;-149.69;100.00;58464.25;6238318;22;46888;-91
2022/01/08 05:56:08;;;;;;;;;0.00;0.00;;;;;-149.69;100.00;58464.25;6241114;22;54561;-91
2022/01/08 05:58:34;;;;;;;;;0.33;0.33;;;;;-149.69;100.00;58464.25;6238595;22;45342;-91
2022/01/08 06:00:59;;;;;;;;;0.33;0.33;;;;;-149.69;100.00;58464.25;6213154;22;45324;-92
2022/01/08 06:03:24;;;;;;;;;1.00;1.00;;;;;-149.69;100.00;58464.25;6213090;22;47874;-91
2022/01/08 06:05:50;;;;;;;;;1.67;1.67;;;;;-149.69;100.00;58464.25;6240902;22;45236;-91
2022/01/08 06:08:15;;;;;;;;;3.00;0.00;;;;;-149.69;100.00;58464.25;6239540;22;45367;-90
2022/01/08 06:10:40;;;;;;;;;0.00;0.00;;;;;-149.69;100.00;58464.25;6240526;22;45307;-90
2022/01/08 06:13:06;;;;;;;;;0.00;0.00;;;;;-149.69;100.00;58464.25;6237507;22;46923;-90
2022/01/08 06:15:31;;;;;;;;;0.00;0.00;;;;;-149.69;100.00;58464.25;6240358;22;45383;-90
2022/01/08 06:17:57;;;;;;;;;2.00;1.00;;;;;-149.69;100.00;58464.25;6240855;22;45297;-90
2022/01/08 06:20:22;;;;;;;;;0.00;0.00;;;;;-149.69;100.00;58464.25;6213179;22;45472;-90
2022/01/08 06:22:47;;;;;;;;;0.00;0.00;;;;;-149.69;100.00;58464.25;6239794;22;45437;-90
2022/01/08 06:25:13;;;;;;;;;0.00;0.00;;;;;-149.69;100.00;58464.25;6238661;22;45843;-91
2022/01/08 06:27:38;;;;;;;;;0.00;0.00;;;;;-149.69;100.00;58464.25;6237302;22;45480;-90
2022/01/08 06:30:04;;;;;;;;;1.00;1.00;;;;;-149.69;100.00;58464.25;6239353;22;47574;-90
2022/01/08 06:32:30;;;;;;;;;1.00;0.00;;;;;-149.69;100.00;58464.25;6239646;22;46469;-90
2022/01/08 06:34:55;;;;;;;;;0.00;0.00;;;;;-149.69;100.00;58464.25;6212758;22;45452;-90
2022/01/08 06:37:20;;;;;;;;;1.00;0.00;;;;;-149.69;100.00;58464.25;6237462;22;45365;-90
2022/01/08 06:39:48;;;;;;;;;1.00;1.00;;;;;-149.69;100.00;58464.25;6239305;22;45397;-90
2022/01/08 06:42:14;;;;;;;;;2.00;0.00;;;;;-149.69;100.00;58464.25;6239823;22;45909;-90
2022/01/08 06:44:39;;;;;;;;;1.00;1.00;;;;;-149.69;100.00;58464.25;6239099;22;45314;-91
2022/01/08 06:47:04;;;;;;;;;0.33;0.00;;;;;-149.69;100.00;58464.25;6240534;22;45267;-90
2022/01/08 06:49:30;;;;;;;;;1.00;0.00;;;;;-149.69;100.00;58464.25;6240525;22;45539;-90
2022/01/08 06:51:55;;;;;;;;;0.67;0.67;;;;;-149.69;100.00;58464.25;6238155;22;48053;-91
2022/01/08 06:54:21;;;;;;;;;0.00;0.00;;;;;-149.69;100.00;58464.25;6240798;22;45342;-90
2022/01/08 06:56:46;;;;;;;;;2.00;2.00;;;;;-149.69;100.00;58464.25;6238606;22;45637;-90
2022/01/08 06:59:11;;;;;;;;;0.33;0.33;;;;;-149.69;100.00;58464.25;6236390;22;45705;-90
2022/01/08 07:01:37;;;;;;;;;0.67;0.67;;;;;-149.69;100.00;58464.25;6238106;22;48212;-90
2022/01/08 07:04:02;;;;;;;;;0.00;0.00;;;;;-149.69;100.00;58464.25;6240663;22;45301;-90
2022/01/08 07:06:27;;;;;;;;;0.00;0.00;;;;;-149.69;100.00;58464.25;6212823;22;45589;-90
2022/01/08 07:08:54;;;;;;;;;1.33;0.00;;;;;-149.69;100.00;58464.25;6240276;22;45381;-90
2022/01/08 07:11:19;;;;;;;;;1.67;1.67;;;;;-149.69;100.00;58464.25;6212708;22;48435;-90
2022/01/08 07:13:45;;;;;;;;;1.33;1.00;;;;;-149.69;100.00;58464.25;6210753;22;45342;-90
2022/01/08 07:16:10;;;;;;;;;1.50;1.00;;;;;-149.69;100.00;58464.25;6212357;22;45385;-89
2022/01/08 07:18:35;;;;;;;;;0.33;0.33;;;;;-149.69;100.00;58464.25;6240508;22;45358;-90
2022/01/08 07:21:01;;;;;;;;;0.33;0.33;;;;;-149.69;100.00;58464.25;6237606;22;49332;-90
2022/01/08 07:23:26;;;;;;;;;1.33;1.33;;;;;-149.69;100.00;58464.25;6239639;22;45335;-90
2022/01/08 07:25:51;;;;;;;;;2.00;2.00;;;;;-149.69;100.00;58464.25;6212162;22;45407;-89
2022/01/08 07:28:17;;;;;;;;;2.00;0.00;;;;;-149.69;100.00;58464.25;6238431;22;45270;-90
2022/01/08 07:30:42;;;;;;;;;1.00;1.00;;;;;-149.69;100.00;58464.25;6239201;22;46207;-90
2022/01/08 07:33:08;;;;;;;;;2.00;2.00;;;;;-149.69;100.00;58464.25;6239417;22;45323;-89
2022/01/08 07:35:33;;;;;;;;;2.00;1.00;;;;;-149.69;100.00;58464.25;6238329;22;45270;-88
2022/01/08 07:37:59;;;;;;;;;1.67;1.00;;;;;-149.69;100.00;58464.25;6239568;22;45386;-89
2022/01/08 07:40:24;;;;;;;;;6.00;2.00;;;;;-149.69;100.00;58464.25;6239453;22;45474;-90
2022/01/08 07:42:50;;;;;;;;;2.00;2.00;;;;;-149.69;100.00;58464.25;6237550;22;45302;-90
2022/01/08 07:45:17;;;;;;;;;2.00;1.00;;;;;-149.69;100.00;58464.25;6239307;22;45283;-90
2022/01/08 07:47:43;;;;;;;;;2.00;1.67;;;;;-149.69;100.00;58464.25;6238855;22;45340;-89
2022/01/08 07:50:10;;;;;;;;;3.67;2.00;;;;;-149.69;100.00;58464.25;6238463;22;46758;-90
2022/01/08 07:52:36;;;;;;;;;2.00;2.00;;;;;-149.69;100.00;58464.25;6210058;22;45496;-90
2022/01/08 07:55:02;;;;;;;;;5.00;2.00;;;;;-149.69;100.00;58464.25;6238624;22;45366;-90
2022/01/08 07:57:27;;;;;;;;;4.33;2.00;;;;;-149.69;100.00;58464.25;6210322;22;45375;-90
2022/01/08 07:59:53;;;;;;;;;2.00;2.00;;;;;-149.69;100.00;58464.25;6239081;22;45521;-90
2022/01/08 08:02:18;;;;;;;;;5.00;2.67;;;;;-149.69;100.00;58464.25;6238736;22;45380;-89
2022/01/08 08:04:44;;;;;;;;;3.00;1.67;;;;;-149.69;100.00;58464.25;6238934;22;45391;-89
2022/01/08 08:07:09;;;;;;;;;6.00;4.33;;;;;-149.69;100.00;58464.25;6238859;22;45378;-89
2022/01/08 08:09:34;;;;;;;;;6.33;2.33;;;;;-149.69;100.00;58464.25;6239344;22;46328;-89
2022/01/08 08:12:00;;;;;;;;;4.67;4.33;;;;;-149.69;100.00;58464.25;6236305;22;45360;-89
2022/01/08 08:14:25;;;;;;;;;3.67;2.33;;;;;-149.69;100.00;58464.25;6238020;22;45291;-93
2022/01/08 08:16:50;;;;;;;;;2.00;2.00;;;;;-149.69;100.00;58464.25;6236565;22;45306;-89
2022/01/08 08:19:16;;;;;;;;;3.00;3.00;;;;;-149.69;100.00;58464.25;6238073;22;45469;-90
2022/01/08 08:21:42;;;;;;;;;2.00;2.00;;;;;-149.69;100.00;58464.25;6236921;22;45783;-89
2022/01/08 08:24:07;;;;;;;;;7.00;4.00;;;;;-149.69;100.00;58464.25;6239581;22;45382;-89
2022/01/08 08:26:34;;;;;;;;;7.00;1.67;;;;;-149.69;100.00;58464.25;6236667;22;45416;-89
2022/01/08 08:28:59;;;;;;;;;3.00;1.00;;;;;-149.69;100.00;58464.25;6237936;22;46250;-89
2022/01/08 08:31:24;;;;;;;;;6.33;2.00;;;;;-149.69;100.00;58464.25;6239953;22;45247;-89
2022/01/08 08:33:49;;;;;;;;;2.00;2.00;;;;;-149.69;100.00;58464.25;6212091;22;45583;-89
2022/01/08 08:36:15;;;;;;;;;5.00;2.33;;;;;-149.69;100.00;58464.25;6239242;22;45391;-89
2022/01/08 08:38:40;;;;;;;;;3.00;3.00;;;;;-149.69;100.00;58464.25;6238869;22;45454;-89
2022/01/08 08:41:05;;;;;;;;;7.00;2.33;;;;;-149.69;100.00;58464.25;6238723;22;45325;-89
2022/01/08 08:43:31;;;;;;;;;2.00;2.00;;;;;-149.69;100.00;58464.25;6237877;22;45272;-88
2022/01/08 08:45:56;;;;;;;;;7.67;3.00;;;;;-149.69;100.00;58464.25;6237408;22;45231;-89
2022/01/08 08:48:22;;;;;;;;;3.00;3.00;;;;;-149.69;100.00;58464.25;6239205;22;46235;-89
2022/01/08 08:50:47;;;;;;;;;6.00;3.67;;;;;-149.69;100.00;58464.25;6238775;22;45406;-89
2022/01/08 08:53:12;;;;;;;;;2.00;2.00;;;;;-149.69;100.00;58464.25;6236981;22;45731;-89
2022/01/08 08:55:38;;;;;;;;;2.00;2.00;;;;;-149.69;100.00;58464.25;6234329;22;45362;-88
2022/01/08 08:58:04;;;;;;;;;2.67;2.67;;;;;-149.69;100.00;58464.25;6237668;22;45582;-89
2022/01/08 09:00:29;;;;;;;;;5.33;3.00;;;;;-149.69;100.00;58464.25;6211340;22;45490;-89
2022/01/08 09:02:55;;;;;;;;;2.33;2.33;;;;;-149.69;100.00;58464.25;6239982;22;45216;-89
2022/01/08 09:05:20;;;;;;;;;2.00;2.00;;;;;-149.69;100.00;58464.25;6238691;22;45286;-89
2022/01/08 09:07:46;;;;;;;;;6.33;3.00;;;;;-149.69;100.00;58464.25;6239149;22;45447;-91
2022/01/08 09:10:12;;;;;;;;;2.33;2.00;;;;;-149.69;100.00;58464.25;6213338;22;45351;-91
2022/01/08 09:12:39;;;;;;;;;2.00;2.00;;;;;-149.69;100.00;58464.25;6240114;22;45265;-90
2022/01/08 09:15:07;;;;;;;;;5.33;5.33;;;;;-149.69;100.00;58464.25;6240359;22;45381;-88
2022/01/08 09:17:33;;;;;;;;;5.33;5.00;;;;;-149.69;100.00;58464.25;6212004;22;47739;-90
2022/01/08 09:19:59;;;;;;;;;4.00;2.00;;;;;-149.69;100.00;58464.25;6239694;22;45240;-91
2022/01/08 09:22:25;;;;;;;;;4.67;3.00;;;;;-149.69;100.00;58464.25;6212048;22;45535;-90
2022/01/08 09:24:52;;;;;;;;;4.00;2.00;;;;;-149.69;100.00;58464.25;6237951;22;45438;-90
2022/01/08 09:27:17;;;;;;;;;1.00;1.00;;;;;-149.69;100.00;58464.25;6211137;22;48239;-88
2022/01/08 09:29:42;;;;;;;;;3.00;3.00;;;;;-149.69;100.00;58464.25;6236560;22;45475;-89
2022/01/08 09:32:08;;;;;;;;;5.00;2.00;;;;;-149.69;100.00;58464.25;6238244;22;45655;-89
2022/01/08 09:34:36;;;;;;;;;7.00;1.67;;;;;-149.69;100.00;58464.25;6238529;22;45372;-89
2022/01/08 09:37:02;;;;;;;;;4.33;3.00;;;;;-149.69;100.00;58464.25;6239248;22;45399;-90
2022/01/08 09:39:27;;;;;;;;;4.00;3.00;;;;;-149.69;100.00;58464.25;6239912;22;45275;-89
2022/01/08 09:41:54;;;;;;;;;6.00;3.67;;;;;-149.69;100.00;58464.25;6239896;22;45283;-89
2022/01/08 09:44:19;;;;;;;;;3.00;3.00;;;;;-149.69;100.00;58464.25;6236350;22;45501;-90
2022/01/08 09:46:45;;;;;;;;;3.00;3.00;;;;;-149.69;100.00;58464.25;6236205;22;45338;-91
2022/01/08 09:49:10;;;;;;;;;4.67;2.33;;;;;-149.69;100.00;58464.25;6211014;22;46165;-90
2022/01/08 09:51:36;;;;;;;;;6.00;3.00;;;;;-149.69;100.00;58464.25;6237418;22;45306;-90
2022/01/08 09:54:02;;;;;;;;;3.67;3.00;;;;;-149.69;100.00;58464.25;6212149;22;45609;-91
2022/01/08 09:56:31;;;;;;;;;2.33;2.33;;;;;-149.69;100.00;58464.25;6237900;22;48237;-91
2022/01/08 09:58:56;;;;;;;;;3.67;3.00;;;;;-149.69;100.00;58464.25;6210144;22;45391;-91
2022/01/08 10:01:30;;;;;;;;;5.33;3.00;;;;;-149.69;100.00;58464.25;6212441;22;45341;-91
2022/01/08 10:03:58;;;;;;;;;3.00;3.00;;;;;-149.69;100.00;58464.25;6212940;22;45272;-91
2022/01/08 10:06:28;;;;;;;;;5.67;2.67;;;;;-149.69;100.00;58464.25;6239593;22;46230;-91
2022/01/08 10:08:55;;;;;;;;;2.33;2.33;;;;;-149.69;100.00;58464.25;6239625;22;45317;-91
2022/01/08 10:11:22;;;;;;;;;6.00;3.00;;;;;-149.69;100.00;58464.25;6238300;22;45334;-91
2022/01/08 10:13:51;;;;;;;;;4.67;3.00;;;;;-149.69;100.00;58464.25;6238205;22;45343;-91
2022/01/08 10:19:17;;;;;;;;;6.33;4.00;;;;;-149.69;100.00;58464.25;6146689;23;45197;-92
2022/01/08 10:21:44;;;;;;;;;6.00;6.00;;;;;-149.69;100.00;58464.25;6120089;23;45378;-92
2022/01/08 10:24:10;;;;;;;;;4.33;3.33;;;;;-149.69;100.00;58464.25;6121216;23;45614;-90
2022/01/08 10:26:40;;;;;;;;;3.00;1.67;;;;;-149.69;100.00;58464.25;6122236;23;46945;-90
2022/01/08 10:29:11;;;;;;;;;4.00;4.00;;;;;-149.69;100.00;58464.25;6144640;23;45387;-91
2022/01/08 10:31:48;;;;;;;;;6.00;2.33;;;;;-149.69;100.00;58464.25;6120490;23;45442;-91
2022/01/08 10:34:13;;;;;;;;;3.67;1.00;;;;;-149.69;100.00;58464.25;6146551;23;45575;-92
2022/01/08 10:36:45;;;;;;;;;6.00;3.33;;;;;-149.69;100.00;58464.25;6119218;23;47140;-89
2022/01/08 10:39:31;;;;;;;;;3.67;2.33;;;;;-149.69;100.00;58464.25;6146015;23;45377;-89
2022/01/08 10:41:59;;;;;;;;;4.00;3.67;;;;;-149.69;100.00;58464.25;6120523;23;45361;-89
2022/01/08 10:44:27;;;;;;;;;5.33;4.00;;;;;-149.69;100.00;58464.25;6119686;23;45485;-90
2022/01/08 10:47:13;;;;;;;;;6.33;4.33;;;;;-149.69;100.00;58464.25;6120129;23;47209;-89
2022/01/08 10:50:00;;;;;;;;;8.67;4.00;;;;;-149.69;100.00;58464.25;6120745;23;45722;-93
2022/01/08 10:52:26;;;;;;;;;7.67;6.00;;;;;-149.69;100.00;58464.25;6121058;23;45325;-93
2022/01/08 10:54:57;;;;;;;;;5.33;3.00;;;;;-149.69;100.00;58464.25;6168109;22;45423;-91
2022/01/08 10:57:35;;;;;;;;;5.67;5.33;;;;;-149.69;100.00;58464.25;6238652;22;46218;-90
2022/01/08 11:00:02;;;;;;;;;7.00;7.00;;;;;-149.69;100.00;58464.25;6213092;22;45895;-91
2022/01/08 11:02:29;;;;;;;;;3.67;2.00;;;;;-149.69;100.00;58464.25;6240310;22;45399;-90
2022/01/08 11:04:55;;;;;;;;;10.67;3.67;;;;;-149.69;100.00;58464.25;6254519;22;45206;-89
2022/01/08 11:07:22;;;;;;;;;7.00;6.67;;;;;-149.69;100.00;58464.25;6228145;22;47429;-88
2022/01/08 11:09:50;;;;;;;;;6.67;4.00;;;;;-149.69;100.00;58464.25;6243349;22;45356;-90
2022/01/08 11:12:23;;;;;;;;;6.67;3.00;;;;;-149.69;100.00;58464.25;6246703;22;45669;-89
2022/01/08 11:17:27;;;;;;;;;6.67;3.33;;;;;-149.69;100.00;58464.25;6240302;22;46076;-91
2022/01/08 11:19:56;;;;;;;;;4.33;4.33;;;;;-149.69;100.00;58464.25;6240493;22;45381;-90
2022/01/08 11:22:25;;;;;;;;;7.67;4.00;;;;;-149.69;100.00;58464.25;6239502;22;45370;-90
2022/01/08 11:25:07;;;;;;;;;4.33;4.00;;;;;-149.69;100.00;58464.25;6238747;22;45262;-89
2022/01/08 11:27:43;;;;;;;;;7.00;3.33;;;;;-149.69;100.00;58464.25;6219203;22;47274;-89
2022/01/08 11:30:11;;;;;;;;;2.33;2.33;;;;;-149.69;100.00;58464.25;6272128;22;28329;-88
2022/01/08 11:32:38;;;;;;;;;12.00;8.67;;;;;-149.69;100.00;58464.25;6285212;22;10305;-88
2022/01/08 11:35:07;;;;;;;;;13.33;8.00;;;;;-149.69;100.00;58464.25;6284538;22;9809;-89
2022/01/08 11:37:33;;;;;;;;;15.00;11.00;;;;;-149.69;100.00;58464.25;6255820;22;9083;-87